Time;durP1;ratioP1;P1;durP2;ratioP2;P2;SDS_P1;SDS_P2;PMS_P1;PMS_P2;Temp;Humidity;BMP_temperature;BMP_pressure;BME280_temperature;BME280_humidity;BME280_pressure;Samples;Min_cycle;Max_cycle;Signal;HPM_P1;HPM_P2
2022/01/02 06:00:35;;;;;;;10.40;9.10;;;8.80;97.20;;;;;;1722308;28;20205;-87
2022/01/02 06:01:26;;;;;;;8.68;7.80;;;8.80;97.20;;;;;;1722614;28;20208;-87
2022/01/02 06:02:17;;;;;;;7.45;6.55;;;8.80;97.20;;;;;;1722253;28;20220;-87
2022/01/02 06:03:08;;;;;;;7.70;6.90;;;8.80;97.20;;;;;;1722322;28;20588;-87
2022/01/02 06:04:00;;;;;;;8.33;7.53;;;8.80;97.20;;;;;;1722036;28;20570;-87
2022/01/02 06:04:50;;;;;;;6.72;6.10;;;8.80;97.20;;;;;;1722598;28;20236;-87
2022/01/02 06:05:42;;;;;;;5.80;5.30;;;8.80;97.20;;;;;;1722306;28;20211;-87
2022/01/02 06:06:33;;;;;;;6.57;5.25;;;8.80;97.20;;;;;;1722304;28;20213;-87
2022/01/02 06:07:25;;;;;;;6.97;5.60;;;8.80;97.20;;;;;;1722456;28;20205;-88
2022/01/02 06:08:16;;;;;;;5.60;4.97;;;8.80;97.20;;;;;;1722037;28;20201;-87
2022/01/02 06:09:07;;;;;;;5.73;4.90;;;8.80;97.20;;;;;;1721956;28;20207;-87
2022/01/02 06:09:58;;;;;;;5.85;5.22;;;8.80;97.20;;;;;;1722220;28;20831;-87
2022/01/02 06:10:50;;;;;;;5.90;5.40;;;8.80;97.20;;;;;;1722324;28;20197;-87
2022/01/02 06:11:41;;;;;;;6.38;5.78;;;8.80;97.20;;;;;;1722604;28;20244;-87
2022/01/02 06:12:32;;;;;;;6.20;5.60;;;8.80;97.20;;;;;;1722450;28;20208;-87
2022/01/02 06:13:23;;;;;;;5.93;5.40;;;8.80;97.20;;;;;;1722650;28;20205;-87
2022/01/02 06:14:16;;;;;;;6.37;5.87;;;8.80;97.20;;;;;;1721865;28;20203;-87
2022/01/02 06:15:07;;;;;;;5.70;5.20;;;8.80;97.20;;;;;;1722313;28;20460;-87
2022/01/02 06:16:00;;;;;;;5.30;4.90;;;8.80;97.20;;;;;;1721946;28;20193;-87
2022/01/02 06:16:51;;;;;;;6.03;5.53;;;8.80;97.20;;;;;;1722314;28;20209;-87
2022/01/02 06:17:42;;;;;;;6.13;5.53;;;8.80;97.20;;;;;;1721935;28;20205;-87
2022/01/02 06:18:33;;;;;;;5.72;5.22;;;8.80;97.20;;;;;;1722487;28;20208;-87
2022/01/02 06:19:25;;;;;;;5.97;4.87;;;8.80;97.20;;;;;;1721976;28;20201;-86
2022/01/02 06:20:16;;;;;;;5.72;5.13;;;8.80;97.20;;;;;;1722893;28;20229;-86
2022/01/02 06:21:07;;;;;;;6.47;5.50;;;8.80;97.20;;;;;;1722402;28;20211;-87
2022/01/02 06:21:58;;;;;;;5.05;4.55;;;8.80;97.20;;;;;;1722436;28;20212;-87
2022/01/02 06:22:50;;;;;;;5.47;4.97;;;8.80;97.20;;;;;;1722359;28;20203;-87
2022/01/02 06:23:41;;;;;;;6.65;4.55;;;8.80;97.20;;;;;;1722231;28;20201;-87
2022/01/02 06:24:32;;;;;;;5.23;4.73;;;8.80;97.20;;;;;;1722119;28;20284;-87
2022/01/02 06:25:23;;;;;;;4.68;4.28;;;8.80;97.20;;;;;;1722324;28;20216;-87
2022/01/02 06:26:15;;;;;;;5.20;4.70;;;8.80;97.20;;;;;;1722160;28;20287;-87
2022/01/02 06:27:06;;;;;;;4.80;4.40;;;8.80;97.20;;;;;;1722508;28;20244;-87
2022/01/02 06:27:57;;;;;;;5.07;4.63;;;8.80;97.20;;;;;;1722269;28;20201;-88
2022/01/02 06:28:48;;;;;;;6.10;5.60;;;8.80;97.20;;;;;;1722425;28;20455;-87
2022/01/02 06:29:40;;;;;;;5.50;5.00;;;8.80;97.20;;;;;;1721905;28;20212;-87
2022/01/02 06:30:32;;;;;;;5.28;4.72;;;8.80;97.20;;;;;;1722826;28;20213;-88
2022/01/02 06:31:25;;;;;;;4.53;4.13;;;8.80;97.20;;;;;;1722280;28;20647;-88
2022/01/02 06:32:15;;;;;;;4.70;4.30;;;8.90;97.20;;;;;;1722313;28;20244;-87
2022/01/02 06:33:07;;;;;;;4.47;4.07;;;8.90;97.20;;;;;;1722438;28;20204;-86
2022/01/02 06:33:58;;;;;;;4.20;3.85;;;8.90;97.20;;;;;;1722369;28;20205;-87
2022/01/02 06:34:50;;;;;;;4.80;4.40;;;8.90;97.20;;;;;;1722378;28;20211;-88
2022/01/02 06:35:40;;;;;;;4.82;4.38;;;8.90;97.20;;;;;;1722911;28;20205;-86
2022/01/02 06:36:32;;;;;;;5.53;4.53;;;8.90;97.20;;;;;;1722479;28;20292;-87
2022/01/02 06:37:23;;;;;;;4.55;4.15;;;8.90;97.20;;;;;;1722592;28;20232;-88
2022/01/02 06:38:16;;;;;;;5.57;4.70;;;8.90;97.20;;;;;;1722143;28;20207;-87
2022/01/02 06:39:07;;;;;;;5.20;4.70;;;8.90;97.20;;;;;;1722137;28;20205;-88
2022/01/02 06:39:59;;;;;;;5.47;4.97;;;8.90;97.20;;;;;;1722260;28;20285;-87
2022/01/02 06:40:49;;;;;;;6.20;5.60;;;8.90;97.20;;;;;;1721984;28;20448;-87
2022/01/02 06:41:41;;;;;;;7.50;6.80;;;8.90;97.20;;;;;;1722117;28;20197;-87
2022/01/02 06:42:32;;;;;;;6.95;6.35;;;8.90;97.20;;;;;;1722229;28;20917;-87
2022/01/02 06:43:24;;;;;;;6.37;5.77;;;8.90;97.20;;;;;;1722105;28;20565;-87
2022/01/02 06:44:14;;;;;;;5.72;5.18;;;8.90;97.20;;;;;;1722363;28;20205;-87
2022/01/02 06:45:07;;;;;;;5.03;4.63;;;8.90;97.20;;;;;;1722360;28;20201;-88
2022/01/02 06:45:58;;;;;;;5.05;4.38;;;8.90;97.20;;;;;;1722530;28;20692;-87
2022/01/02 06:46:52;;;;;;;5.17;4.67;;;8.90;97.20;;;;;;1722130;28;20723;-87
2022/01/02 06:47:43;;;;;;;4.15;3.75;;;8.90;97.20;;;;;;1722536;28;20250;-87
2022/01/02 06:48:34;;;;;;;4.55;3.65;;;8.90;97.20;;;;;;1722113;28;20908;-87
2022/01/02 06:49:25;;;;;;;4.63;3.65;;;8.90;97.20;;;;;;1722014;28;20229;-88
2022/01/02 06:50:17;;;;;;;4.80;4.30;;;8.90;97.20;;;;;;1722391;28;20200;-87
2022/01/02 06:51:08;;;;;;;4.28;3.78;;;8.90;97.20;;;;;;1722481;28;20963;-87
2022/01/02 06:51:59;;;;;;;4.80;4.00;;;8.90;97.20;;;;;;1722554;28;20554;-87
2022/01/02 06:52:50;;;;;;;4.13;3.83;;;8.90;97.20;;;;;;1722448;28;20201;-86
2022/01/02 06:53:42;;;;;;;4.77;4.33;;;8.90;97.20;;;;;;1722108;28;20212;-86
2022/01/02 06:54:33;;;;;;;5.38;4.75;;;8.90;97.20;;;;;;1722028;28;20216;-87
2022/01/02 06:55:24;;;;;;;6.10;5.50;;;8.90;97.20;;;;;;1722002;28;20196;-88
2022/01/02 06:56:15;;;;;;;5.82;5.28;;;8.90;97.20;;;;;;1722385;28;20559;-86
2022/01/02 06:57:07;;;;;;;6.07;5.57;;;8.90;97.20;;;;;;1722361;28;20576;-87
2022/01/02 06:57:58;;;;;;;7.20;6.50;;;8.90;97.20;;;;;;1721990;28;20205;-87
2022/01/02 06:58:49;;;;;;;6.57;5.97;;;8.90;97.20;;;;;;1722284;28;20205;-87
2022/01/02 06:59:41;;;;;;;7.72;7.03;;;9.00;97.20;;;;;;1722521;28;20252;-87
2022/01/02 07:00:33;;;;;;;8.45;7.53;;;9.00;97.20;;;;;;1722456;28;20229;-87
2022/01/02 07:01:24;;;;;;;8.95;8.05;;;9.00;97.20;;;;;;1722473;28;20233;-87
2022/01/02 07:02:17;;;;;;;9.40;6.63;;;9.00;97.20;;;;;;1722707;28;20198;-87
2022/01/02 07:03:08;;;;;;;6.65;6.05;;;9.00;97.20;;;;;;1722822;28;20224;-87
2022/01/02 07:04:00;;;;;;;7.20;6.50;;;9.00;97.20;;;;;;1722096;28;20284;-87
2022/01/02 07:04:50;;;;;;;5.20;4.70;;;9.00;97.20;;;;;;1722022;28;20448;-87
2022/01/02 07:05:42;;;;;;;5.00;4.53;;;9.00;97.20;;;;;;1722200;28;20209;-87
2022/01/02 07:06:33;;;;;;;4.47;4.05;;;9.10;97.20;;;;;;1722397;28;20209;-87
2022/01/02 07:07:25;;;;;;;4.60;4.30;;;9.10;97.20;;;;;;1722159;28;20209;-87
2022/01/02 07:08:15;;;;;;;4.40;4.00;;;9.10;97.20;;;;;;1721879;28;20214;-87
2022/01/02 07:09:07;;;;;;;3.90;3.60;;;9.10;97.20;;;;;;1722112;28;20205;-87
2022/01/02 07:09:58;;;;;;;4.35;3.95;;;9.10;97.20;;;;;;1722282;28;20733;-88
2022/01/02 07:10:49;;;;;;;4.87;3.83;;;9.10;97.20;;;;;;1722327;28;20209;-87
2022/01/02 07:11:40;;;;;;;4.20;3.80;;;9.20;97.20;;;;;;1722097;28;20252;-87
2022/01/02 07:12:32;;;;;;;5.20;3.63;;;9.20;97.20;;;;;;1721952;28;20213;-87
2022/01/02 07:13:23;;;;;;;5.28;4.78;;;9.20;97.20;;;;;;1722047;28;20206;-87
2022/01/02 07:14:15;;;;;;;6.70;6.10;;;9.20;97.20;;;;;;1722254;28;20204;-86
2022/01/02 07:15:07;;;;;;;7.57;6.88;;;9.30;97.20;;;;;;1722380;28;20669;-87
2022/01/02 07:15:59;;;;;;;7.82;7.03;;;9.30;97.20;;;;;;1722344;28;20704;-88
2022/01/02 07:16:50;;;;;;;6.95;6.25;;;9.30;97.20;;;;;;1722384;28;20200;-86
2022/01/02 07:17:43;;;;;;;6.40;5.90;;;9.30;97.20;;;;;;1721845;28;20205;-88
2022/01/02 07:18:34;;;;;;;7.05;6.45;;;9.30;97.20;;;;;;1722170;28;20228;-86
2022/01/02 07:19:25;;;;;;;5.90;5.30;;;9.30;97.20;;;;;;1722157;28;20205;-88
2022/01/02 07:20:17;;;;;;;6.05;5.55;;;9.40;97.20;;;;;;1722293;28;20674;-87
2022/01/02 07:21:08;;;;;;;5.95;5.45;;;9.40;97.20;;;;;;1721907;28;20225;-87
2022/01/02 07:22:00;;;;;;;5.33;4.83;;;9.40;97.20;;;;;;1722357;28;20203;-87
2022/01/02 07:22:51;;;;;;;4.95;4.35;;;9.40;97.20;;;;;;1722309;28;20452;-87
2022/01/02 07:23:43;;;;;;;4.40;4.00;;;9.40;97.20;;;;;;1722506;28;20288;-87
2022/01/02 07:24:34;;;;;;;5.32;4.75;;;9.50;97.20;;;;;;1722314;28;20971;-86
2022/01/02 07:25:26;;;;;;;4.95;4.25;;;9.50;97.20;;;;;;1722162;28;20292;-87
2022/01/02 07:26:16;;;;;;;4.40;4.00;;;9.50;97.20;;;;;;1722560;28;20669;-89
2022/01/02 07:27:08;;;;;;;4.80;4.40;;;9.50;97.20;;;;;;1723645;28;20571;-86
2022/01/02 07:27:59;;;;;;;5.22;4.72;;;9.50;97.20;;;;;;1723275;28;20212;-87
2022/01/02 07:28:50;;;;;;;5.43;4.93;;;9.50;97.20;;;;;;1723574;28;20212;-87
2022/01/02 07:29:41;;;;;;;4.60;4.20;;;9.50;97.20;;;;;;1723525;28;20232;-87
2022/01/02 07:30:33;;;;;;;6.20;4.80;;;9.50;97.20;;;;;;1723856;28;20205;-86
2022/01/02 07:31:24;;;;;;;5.05;4.65;;;9.50;97.20;;;;;;1723568;28;20232;-87
2022/01/02 07:32:16;;;;;;;4.80;4.40;;;9.60;97.20;;;;;;1723712;28;20201;-87
2022/01/02 07:33:08;;;;;;;5.20;4.80;;;9.60;97.20;;;;;;1723579;28;20204;-87
2022/01/02 07:34:01;;;;;;;5.00;4.45;;;9.60;97.20;;;;;;1723405;28;20735;-88
2022/01/02 07:34:52;;;;;;;4.65;4.25;;;9.60;97.20;;;;;;1723529;28;20579;-87
2022/01/02 07:35:43;;;;;;;5.22;4.05;;;9.60;97.20;;;;;;1724023;28;20205;-87
2022/01/02 07:36:35;;;;;;;4.67;4.27;;;9.60;97.20;;;;;;1724458;28;20208;-86
2022/01/02 07:37:26;;;;;;;5.03;4.50;;;9.70;97.20;;;;;;1723878;28;20198;-87
2022/01/02 07:38:17;;;;;;;4.75;4.35;;;9.70;97.20;;;;;;1724071;28;20240;-87
2022/01/02 07:39:09;;;;;;;4.83;4.43;;;9.70;97.20;;;;;;1724173;28;20205;-87
2022/01/02 07:40:00;;;;;;;4.93;4.53;;;9.70;97.20;;;;;;1724284;28;20221;-86
2022/01/02 07:40:51;;;;;;;4.57;4.17;;;9.70;97.20;;;;;;1723970;28;20288;-87
2022/01/02 07:41:43;;;;;;;5.50;5.10;;;9.70;97.20;;;;;;1724445;28;20219;-87
2022/01/02 07:42:34;;;;;;;4.97;4.57;;;9.70;97.20;;;;;;1724126;28;20197;-87
2022/01/02 07:43:25;;;;;;;4.38;4.07;;;9.70;97.20;;;;;;1724715;28;20220;-88
2022/01/02 07:44:17;;;;;;;4.70;4.30;;;9.80;97.20;;;;;;1724438;28;20201;-87
2022/01/02 07:45:08;;;;;;;4.40;4.05;;;9.80;97.20;;;;;;1724381;28;20649;-87
2022/01/02 07:46:00;;;;;;;5.40;4.90;;;9.80;97.20;;;;;;1724186;28;20249;-88
2022/01/02 07:46:51;;;;;;;4.70;4.30;;;9.80;97.20;;;;;;1724765;28;20205;-87
2022/01/02 07:47:42;;;;;;;3.97;3.67;;;9.80;97.20;;;;;;1723945;28;20299;-88
2022/01/02 07:48:34;;;;;;;4.25;3.92;;;9.80;97.20;;;;;;1724091;28;20212;-88
2022/01/02 07:49:26;;;;;;;3.83;3.42;;;9.90;97.20;;;;;;1723928;28;20205;-88
2022/01/02 07:50:18;;;;;;;4.60;4.18;;;9.90;97.20;;;;;;1724390;28;20209;-87
2022/01/02 07:51:09;;;;;;;3.90;3.60;;;9.90;97.20;;;;;;1723830;28;20244;-87
2022/01/02 07:52:01;;;;;;;4.10;3.75;;;9.90;97.20;;;;;;1723982;28;20201;-87
2022/01/02 07:52:53;;;;;;;4.25;3.85;;;9.90;97.20;;;;;;1724145;28;20201;-88
2022/01/02 07:53:43;;;;;;;4.40;4.00;;;10.00;97.20;;;;;;1723898;28;20247;-88
2022/01/02 07:54:35;;;;;;;4.33;3.97;;;10.00;97.20;;;;;;1723850;28;20197;-89
2022/01/02 07:55:26;;;;;;;4.65;3.75;;;10.00;97.20;;;;;;1723826;28;20216;-87
2022/01/02 07:56:18;;;;;;;4.80;4.17;;;10.00;97.20;;;;;;1723964;28;20199;-87
2022/01/02 07:57:08;;;;;;;4.03;3.63;;;10.00;97.20;;;;;;1724081;28;20301;-86
2022/01/02 07:58:01;;;;;;;4.27;3.90;;;10.00;97.20;;;;;;1723659;28;20201;-87
2022/01/02 07:58:54;;;;;;;4.20;3.80;;;10.00;97.20;;;;;;1724120;28;20232;-87
2022/01/02 07:59:44;;;;;;;3.70;3.40;;;10.00;97.20;;;;;;1723665;28;20229;-86
2022/01/02 08:00:36;;;;;;;3.97;3.60;;;10.00;97.20;;;;;;1724007;28;20220;-87
2022/01/02 08:01:27;;;;;;;3.95;3.65;;;10.00;97.20;;;;;;1723922;28;20208;-87
2022/01/02 08:02:19;;;;;;;3.70;3.40;;;10.00;97.20;;;;;;1724298;28;20203;-88
2022/01/02 08:03:10;;;;;;;3.70;3.40;;;10.00;97.20;;;;;;1723838;28;20260;-89
2022/01/02 08:04:03;;;;;;;3.93;3.53;;;10.10;97.20;;;;;;1724161;28;20224;-87
2022/01/02 08:04:53;;;;;;;3.78;3.40;;;10.10;97.20;;;;;;1724149;28;20669;-87
2022/01/02 08:05:45;;;;;;;3.43;3.13;;;10.10;97.20;;;;;;1723955;28;20748;-87
2022/01/02 08:06:36;;;;;;;4.25;3.85;;;10.10;97.20;;;;;;1723974;28;20236;-89
2022/01/02 08:07:27;;;;;;;4.10;3.80;;;10.10;97.20;;;;;;1724042;28;20203;-87
2022/01/02 08:08:18;;;;;;;5.15;4.65;;;10.10;97.20;;;;;;1723979;28;20205;-86
2022/01/02 08:09:10;;;;;;;4.33;3.87;;;10.10;97.20;;;;;;1723921;28;20283;-87
2022/01/02 08:10:03;;;;;;;4.57;4.18;;;10.10;97.20;;;;;;1723642;28;20252;-87
2022/01/02 08:10:55;;;;;;;4.18;3.78;;;10.10;97.20;;;;;;1724316;28;20657;-87
2022/01/02 08:11:45;;;;;;;4.00;3.70;;;10.10;97.20;;;;;;1723499;28;20226;-87
2022/01/02 08:12:37;;;;;;;3.80;3.50;;;10.10;97.20;;;;;;1723970;28;20285;-87
2022/01/02 08:13:28;;;;;;;3.40;3.05;;;10.10;97.20;;;;;;1723965;28;20238;-87
2022/01/02 08:14:21;;;;;;;3.50;3.13;;;10.20;97.20;;;;;;1724145;28;20204;-88
2022/01/02 08:15:12;;;;;;;4.20;3.25;;;10.20;97.20;;;;;;1723845;28;20205;-87
2022/01/02 08:16:04;;;;;;;3.17;2.97;;;10.20;97.20;;;;;;1723849;28;20213;-87
2022/01/02 08:16:55;;;;;;;3.42;3.13;;;10.20;97.20;;;;;;1723730;28;20205;-87
2022/01/02 08:17:46;;;;;;;4.20;3.80;;;10.30;97.20;;;;;;1723603;28;20574;-87
2022/01/02 08:18:37;;;;;;;4.13;3.70;;;10.30;97.20;;;;;;1723604;28;20208;-87
2022/01/02 08:19:30;;;;;;;4.90;4.40;;;10.30;97.20;;;;;;1723622;28;20197;-88
2022/01/02 08:20:22;;;;;;;3.70;3.40;;;10.30;97.20;;;;;;1723947;28;20212;-87
2022/01/02 08:21:13;;;;;;;3.70;3.50;;;10.40;97.20;;;;;;1724046;28;20233;-87
2022/01/02 08:22:04;;;;;;;4.47;4.07;;;10.40;97.20;;;;;;1723665;28;20228;-86
2022/01/02 08:22:57;;;;;;;4.50;4.10;;;10.40;97.20;;;;;;1723692;28;20718;-87
2022/01/02 08:23:47;;;;;;;4.40;4.00;;;10.40;97.20;;;;;;1723434;28;20212;-87
2022/01/02 08:24:39;;;;;;;4.20;3.90;;;10.40;97.20;;;;;;1723413;28;20205;-87
2022/01/02 08:25:30;;;;;;;4.60;4.20;;;10.40;97.20;;;;;;1723525;28;20201;-87
2022/01/02 08:26:21;;;;;;;4.03;3.73;;;10.50;97.20;;;;;;1723724;28;20200;-88
2022/01/02 08:27:12;;;;;;;4.88;4.47;;;10.50;97.20;;;;;;1723711;28;20201;-86
2022/01/02 08:28:04;;;;;;;4.73;4.33;;;10.50;97.20;;;;;;1724941;28;20207;-87
2022/01/02 08:28:56;;;;;;;5.30;4.75;;;10.50;97.20;;;;;;1725830;28;20229;-87
2022/01/02 08:29:46;;;;;;;4.90;4.45;;;10.50;97.20;;;;;;1723735;28;20371;-88
2022/01/02 08:30:41;;;;;;;5.23;4.83;;;10.60;97.20;;;;;;1723439;28;20259;-86
2022/01/02 08:31:32;;;;;;;4.82;4.35;;;10.60;97.20;;;;;;1723687;28;20209;-86
2022/01/02 08:32:24;;;;;;;4.87;3.90;;;10.60;97.20;;;;;;1723649;28;20320;-86
2022/01/02 08:33:16;;;;;;;4.88;4.47;;;10.60;97.20;;;;;;1723451;28;20453;-86
2022/01/02 08:34:07;;;;;;;5.32;4.68;;;10.70;97.20;;;;;;1723448;28;20201;-87
2022/01/02 08:35:00;;;;;;;4.67;4.27;;;10.70;97.20;;;;;;1723564;28;20201;-87
2022/01/02 08:35:52;;;;;;;4.10;3.80;;;10.70;97.20;;;;;;1723684;28;20240;-86
2022/01/02 08:36:42;;;;;;;4.70;4.30;;;10.70;97.20;;;;;;1723920;28;20239;-86
2022/01/02 08:37:34;;;;;;;4.43;4.03;;;10.70;97.20;;;;;;1722814;28;20212;-91
2022/01/02 08:38:27;;;;;;;4.07;3.67;;;10.70;97.20;;;;;;1722781;28;20239;-88
2022/01/02 08:39:18;;;;;;;4.38;4.00;;;10.70;97.20;;;;;;1722746;28;20661;-86
2022/01/02 08:40:10;;;;;;;4.20;3.78;;;10.80;97.20;;;;;;1723187;28;20208;-86
2022/01/02 08:41:01;;;;;;;4.72;4.20;;;10.80;97.20;;;;;;1722998;28;20283;-86
2022/01/02 08:41:52;;;;;;;4.75;4.28;;;10.80;97.20;;;;;;1722703;28;20201;-86
2022/01/02 08:42:44;;;;;;;4.25;3.90;;;10.80;97.20;;;;;;1722692;28;20193;-87
2022/01/02 08:43:35;;;;;;;6.60;6.10;;;10.80;97.20;;;;;;1723093;28;20229;-88
2022/01/02 08:44:27;;;;;;;6.28;5.78;;;10.90;97.20;;;;;;1723074;28;20652;-87
2022/01/02 08:45:18;;;;;;;5.72;5.20;;;10.90;97.20;;;;;;1723152;28;20240;-86
2022/01/02 08:46:10;;;;;;;5.17;4.67;;;10.90;97.20;;;;;;1722768;28;20212;-86
2022/01/02 08:47:01;;;;;;;4.70;4.30;;;10.90;97.20;;;;;;1723154;28;20213;-88
2022/01/02 08:47:53;;;;;;;4.33;3.97;;;11.00;97.20;;;;;;1722563;28;20211;-87
2022/01/02 08:48:44;;;;;;;5.07;4.53;;;11.00;97.20;;;;;;1722957;28;20455;-86
2022/01/02 08:49:35;;;;;;;6.47;5.17;;;11.00;97.20;;;;;;1723524;28;20312;-87
2022/01/02 08:50:28;;;;;;;4.80;4.40;;;11.10;97.20;;;;;;1724672;28;20483;-86
2022/01/02 08:51:19;;;;;;;4.70;4.30;;;11.10;97.20;;;;;;1723094;28;20203;-86
2022/01/02 08:52:10;;;;;;;4.35;3.95;;;11.10;97.20;;;;;;1722969;28;20708;-87
2022/01/02 08:53:02;;;;;;;4.70;4.30;;;11.20;97.20;;;;;;1723000;28;20709;-86
2022/01/02 08:53:52;;;;;;;4.60;4.20;;;11.20;97.20;;;;;;1722943;28;20703;-87
2022/01/02 08:54:44;;;;;;;4.90;4.07;;;11.30;97.20;;;;;;1722836;28;20691;-87
2022/01/02 08:55:35;;;;;;;3.72;3.42;;;11.30;97.20;;;;;;1723399;28;20201;-86
2022/01/02 08:56:27;;;;;;;3.50;3.20;;;11.30;97.20;;;;;;1723461;28;20197;-87
2022/01/02 08:57:18;;;;;;;6.60;3.25;;;11.40;97.20;;;;;;1723464;28;20212;-87
2022/01/02 08:58:09;;;;;;;4.23;3.83;;;11.40;97.20;;;;;;1722498;28;20203;-85
2022/01/02 08:59:00;;;;;;;3.60;3.30;;;11.40;97.20;;;;;;1722619;28;20834;-86
2022/01/02 08:59:52;;;;;;;3.70;3.40;;;11.40;97.20;;;;;;1723111;28;20271;-86
2022/01/02 09:00:43;;;;;;;3.20;3.00;;;11.40;97.20;;;;;;1723244;28;20242;-86
2022/01/02 09:01:34;;;;;;;3.47;3.17;;;11.50;97.20;;;;;;1722667;28;20696;-87
2022/01/02 09:02:25;;;;;;;3.42;3.13;;;11.50;97.20;;;;;;1722949;28;20232;-86
2022/01/02 09:03:17;;;;;;;4.17;3.77;;;11.50;97.20;;;;;;1722835;28;20200;-87
2022/01/02 09:04:08;;;;;;;3.40;3.10;;;11.60;97.20;;;;;;1723050;28;20600;-87
2022/01/02 09:04:59;;;;;;;3.97;3.57;;;11.60;97.20;;;;;;1722744;28;20205;-86
2022/01/02 09:05:51;;;;;;;3.45;3.17;;;11.60;97.20;;;;;;1723199;28;20601;-88
2022/01/02 09:06:43;;;;;;;3.40;3.10;;;11.60;97.20;;;;;;1723132;28;20684;-86
2022/01/02 09:07:34;;;;;;;4.85;3.33;;;11.60;97.20;;;;;;1723008;28;20259;-86
2022/01/02 09:08:26;;;;;;;3.37;3.10;;;11.70;97.20;;;;;;1722945;28;20201;-86
2022/01/02 09:09:17;;;;;;;3.30;3.00;;;11.70;97.20;;;;;;1723119;28;20440;-86
2022/01/02 09:10:09;;;;;;;4.70;3.50;;;11.70;97.20;;;;;;1722562;28;20201;-90
2022/01/02 09:11:00;;;;;;;4.00;3.70;;;11.80;97.20;;;;;;1723932;28;20206;-87
2022/01/02 09:11:52;;;;;;;4.00;3.60;;;11.80;97.20;;;;;;1722736;28;20284;-86
2022/01/02 09:12:43;;;;;;;3.40;3.10;;;11.90;97.20;;;;;;1722845;28;20216;-87
2022/01/02 09:13:34;;;;;;;4.50;3.23;;;11.90;97.20;;;;;;1722216;28;20201;-86
2022/01/02 09:14:25;;;;;;;3.28;2.97;;;11.90;97.20;;;;;;1722971;28;20205;-86
2022/01/02 09:15:18;;;;;;;3.83;3.53;;;12.00;97.20;;;;;;1722471;28;20185;-88
2022/01/02 09:16:08;;;;;;;3.85;3.42;;;12.00;97.20;;;;;;1722434;28;20213;-87
2022/01/02 09:17:00;;;;;;;3.20;2.93;;;12.10;97.20;;;;;;1722187;28;20211;-86
2022/01/02 09:17:52;;;;;;;4.30;2.90;;;12.10;97.20;;;;;;1722282;28;20209;-87
2022/01/02 09:18:43;;;;;;;3.17;2.88;;;12.20;97.20;;;;;;1722497;28;20212;-87
2022/01/02 09:19:34;;;;;;;3.23;2.93;;;12.20;97.20;;;;;;1722490;28;20288;-86
2022/01/02 09:20:26;;;;;;;2.95;2.60;;;12.30;97.20;;;;;;1722546;28;20208;-87
2022/01/02 09:21:18;;;;;;;2.95;2.22;;;12.30;97.20;;;;;;1726052;28;20225;-87
2022/01/02 09:22:10;;;;;;;3.60;3.00;;;12.40;97.20;;;;;;1725926;28;20249;-87
2022/01/02 09:23:02;;;;;;;2.75;2.55;;;12.50;97.20;;;;;;1722515;28;20240;-87
2022/01/02 09:23:52;;;;;;;3.20;2.90;;;12.50;97.20;;;;;;1722609;28;20204;-87
2022/01/02 09:24:44;;;;;;;4.30;3.20;;;12.50;97.20;;;;;;1722383;28;20209;-87
2022/01/02 09:25:36;;;;;;;3.08;2.78;;;12.60;97.20;;;;;;1722597;28;20201;-87
2022/01/02 09:26:27;;;;;;;2.60;2.40;;;12.60;97.20;;;;;;1722691;28;20205;-87
2022/01/02 09:27:18;;;;;;;3.27;2.70;;;12.60;97.20;;;;;;1722531;28;20281;-87
2022/01/02 09:28:10;;;;;;;2.72;2.40;;;12.60;97.20;;;;;;1721595;28;20298;-87
2022/01/02 09:29:01;;;;;;;2.65;2.42;;;12.60;97.20;;;;;;1722341;28;20212;-87
2022/01/02 09:29:53;;;;;;;3.00;2.70;;;12.60;97.20;;;;;;1722199;28;20355;-87
2022/01/02 09:30:44;;;;;;;2.88;2.58;;;12.60;97.20;;;;;;1722502;28;20449;-86
2022/01/02 09:31:36;;;;;;;3.13;2.20;;;12.60;97.20;;;;;;1722287;28;20204;-88
2022/01/02 09:32:27;;;;;;;2.90;2.60;;;12.60;97.20;;;;;;1722075;28;20212;-86
2022/01/02 09:33:18;;;;;;;2.77;2.57;;;12.60;97.20;;;;;;1722215;28;20193;-87
2022/01/02 09:34:10;;;;;;;3.00;2.70;;;12.60;97.20;;;;;;1722479;28;20481;-87
2022/01/02 09:35:01;;;;;;;2.40;2.20;;;12.60;97.20;;;;;;1722360;28;20683;-87
2022/01/02 09:35:52;;;;;;;2.78;2.50;;;12.60;97.20;;;;;;1722263;28;20227;-87
2022/01/02 09:36:45;;;;;;;2.77;2.57;;;12.60;97.20;;;;;;1722245;28;20224;-86
2022/01/02 09:37:36;;;;;;;3.33;3.03;;;12.50;97.20;;;;;;1721864;28;20208;-87
2022/01/02 09:38:28;;;;;;;4.18;3.30;;;12.50;97.20;;;;;;1723116;28;20196;-87
2022/01/02 09:39:19;;;;;;;3.35;2.88;;;12.50;97.20;;;;;;1722537;28;20201;-86
2022/01/02 09:40:11;;;;;;;3.10;2.73;;;12.50;97.20;;;;;;1721407;28;20284;-87
2022/01/02 09:41:02;;;;;;;3.20;2.80;;;12.50;97.20;;;;;;1722388;28;20243;-86
2022/01/02 09:41:54;;;;;;;2.90;2.70;;;12.50;97.20;;;;;;1722627;28;20232;-87
2022/01/02 09:42:45;;;;;;;2.72;2.53;;;12.50;97.20;;;;;;1723029;28;20444;-88
2022/01/02 09:43:37;;;;;;;2.90;2.50;;;12.50;97.20;;;;;;1723531;28;20683;-87
2022/01/02 09:44:29;;;;;;;2.97;2.67;;;12.40;97.20;;;;;;1723490;28;20866;-88
2022/01/02 09:45:21;;;;;;;2.70;2.50;;;12.40;97.20;;;;;;1722479;28;20201;-88
2022/01/02 09:46:12;;;;;;;4.15;2.80;;;12.40;97.20;;;;;;1722819;28;20200;-88
2022/01/02 09:47:05;;;;;;;3.10;2.78;;;12.40;97.20;;;;;;1723539;28;20197;-89
2022/01/02 09:47:56;;;;;;;3.00;2.80;;;12.40;97.20;;;;;;1723345;28;20683;-87
2022/01/02 09:48:49;;;;;;;2.63;2.43;;;12.40;97.20;;;;;;1722155;28;20265;-87
2022/01/02 09:49:39;;;;;;;2.95;2.75;;;12.40;97.20;;;;;;1721732;28;20484;-87
2022/01/02 09:50:32;;;;;;;2.53;2.33;;;12.40;97.20;;;;;;1722742;28;20201;-88
2022/01/02 09:51:24;;;;;;;2.40;2.17;;;12.40;97.20;;;;;;1723689;28;20296;-88
2022/01/02 09:52:18;;;;;;;3.10;2.90;;;12.40;97.20;;;;;;1724737;28;20739;-88
2022/01/02 09:53:13;;;;;;;3.05;2.45;;;12.40;97.20;;;;;;1722687;28;20217;-86
2022/01/02 09:54:04;;;;;;;2.67;2.47;;;12.40;97.20;;;;;;1722393;28;20293;-87
2022/01/02 09:54:56;;;;;;;3.10;2.80;;;12.40;97.20;;;;;;1721152;28;20201;-85
2022/01/02 09:55:47;;;;;;;3.10;2.80;;;12.40;97.20;;;;;;1722428;28;20381;-85
2022/01/02 09:56:39;;;;;;;3.10;2.80;;;12.40;97.20;;;;;;1721945;28;20217;-85
2022/01/02 09:57:30;;;;;;;3.03;2.75;;;12.40;97.20;;;;;;1722123;28;20216;-87
2022/01/02 09:58:22;;;;;;;3.17;2.77;;;12.40;97.20;;;;;;1721720;28;20728;-88
2022/01/02 09:59:12;;;;;;;2.70;2.50;;;12.30;97.20;;;;;;1722691;28;20202;-87
2022/01/02 10:00:05;;;;;;;3.40;2.43;;;12.30;97.20;;;;;;1721867;28;20221;-87
2022/01/02 10:00:56;;;;;;;2.70;2.25;;;12.30;97.20;;;;;;1725264;28;20205;-90
2022/01/02 10:01:48;;;;;;;2.85;2.55;;;12.30;97.20;;;;;;1725470;28;20255;-88
2022/01/02 10:03:01;;;;;;;2.22;2.03;;;12.30;97.20;;;;;;1725559;28;20208;-90
2022/01/02 10:03:57;;;;;;;2.70;2.50;;;12.30;97.20;;;;;;1721006;28;20202;-90
2022/01/02 10:04:48;;;;;;;3.08;2.78;;;12.30;97.20;;;;;;1722508;28;20220;-88
2022/01/02 10:05:52;;;;;;;3.20;2.90;;;12.30;97.20;;;;;;1722659;28;20680;-87
2022/01/02 10:06:47;;;;;;;2.90;2.70;;;12.30;97.20;;;;;;1723044;28;20205;-87
2022/01/02 10:07:41;;;;;;;2.72;2.53;;;12.30;97.20;;;;;;1722522;28;20205;-87
2022/01/02 10:08:35;;;;;;;3.97;3.20;;;12.30;97.20;;;;;;1723121;28;20216;-89
2022/01/02 10:09:31;;;;;;;4.10;3.60;;;12.30;97.20;;;;;;1723704;28;20821;-85
2022/01/02 10:10:33;;;;;;;4.20;3.58;;;12.30;97.20;;;;;;1723117;28;20201;-88
2022/01/02 10:11:25;;;;;;;3.30;2.97;;;12.40;97.20;;;;;;1721893;28;20225;-87
2022/01/02 10:12:26;;;;;;;3.38;3.08;;;12.40;97.20;;;;;;1721901;28;20634;-88
2022/01/02 10:13:17;;;;;;;2.83;2.53;;;12.40;97.20;;;;;;1721667;28;20332;-87
2022/01/02 10:14:10;;;;;;;2.40;2.20;;;12.40;97.20;;;;;;1721934;28;20208;-87
2022/01/02 10:15:17;;;;;;;2.90;2.00;;;12.40;97.20;;;;;;1721402;28;20201;-87
2022/01/02 10:16:23;;;;;;;5.57;2.20;;;12.50;97.20;;;;;;1721574;28;20653;-87
2022/01/02 10:17:14;;;;;;;5.22;2.10;;;12.50;97.20;;;;;;1721665;28;20205;-87
2022/01/02 10:18:07;;;;;;;2.53;2.33;;;12.50;97.20;;;;;;1721364;28;20264;-85
2022/01/02 10:18:59;;;;;;;2.55;2.35;;;12.50;97.20;;;;;;1721099;28;20233;-85
2022/01/02 10:19:51;;;;;;;2.67;2.47;;;12.60;97.20;;;;;;1722457;28;20221;-89
2022/01/02 10:20:45;;;;;;;2.42;2.05;;;12.60;97.20;;;;;;1722036;28;20204;-88
2022/01/02 10:21:39;;;;;;;2.40;2.20;;;12.60;97.20;;;;;;1720648;28;20209;-86
2022/01/02 10:22:30;;;;;;;2.13;1.95;;;12.60;97.20;;;;;;1720899;28;20728;-84
2022/01/02 10:23:24;;;;;;;2.22;2.03;;;12.70;97.20;;;;;;1720983;28;20568;-86
2022/01/02 10:24:19;;;;;;;2.35;2.00;;;12.70;97.20;;;;;;1723581;28;20208;-90
2022/01/02 10:25:10;;;;;;;2.40;2.20;;;12.70;97.20;;;;;;1722785;28;20213;-87
2022/01/02 10:26:03;;;;;;;2.00;1.80;;;12.70;97.20;;;;;;1721949;28;20208;-87
2022/01/02 10:27:06;;;;;;;2.08;1.80;;;12.70;97.20;;;;;;1722846;28;20568;-86
2022/01/02 10:27:58;;;;;;;2.10;2.00;;;12.70;97.20;;;;;;1714422;28;20206;-87
2022/01/02 10:28:48;;;;;;;2.60;2.40;;;12.70;97.20;;;;;;1720869;28;20217;-89
2022/01/02 10:29:59;;;;;;;1.90;1.70;;;12.70;97.20;;;;;;1721231;28;20229;-86
2022/01/02 10:30:51;;;;;;;2.22;2.03;;;12.80;97.20;;;;;;1722336;28;20209;-85
2022/01/02 10:31:43;;;;;;;2.15;1.95;;;12.70;97.20;;;;;;1722647;28;20240;-87